Time;durP1;ratioP1;P1;durP2;ratioP2;P2;SDS_P1;SDS_P2;PMS_P1;PMS_P2;Temp;Humidity;BMP_temperature;BMP_pressure;BME280_temperature;BME280_humidity;BME280_pressure;Samples;Min_cycle;Max_cycle;Signal;HPM_P1;HPM_P2
2021/07/31 00:01:58;;;;;;;;;;;18.10;99.90;;;;;;1887661;76;20307;-73
2021/07/31 00:04:25;;;;;;;;;;;18.10;99.90;;;;;;1886625;76;20217;-72
2021/07/31 00:06:52;;;;;;;;;;;18.10;99.90;;;;;;1877232;76;20288;-71
2021/07/31 00:09:19;;;;;;;;;;;18.10;99.90;;;;;;1880017;75;20195;-71
2021/07/31 00:11:45;;;;;;;;;;;18.10;99.90;;;;;;1877693;75;20203;-70
2021/07/31 00:14:13;;;;;;;;;;;18.00;99.90;;;;;;1880536;75;20869;-70
2021/07/31 00:16:39;;;;;;;;;;;18.10;99.90;;;;;;1880868;76;20168;-71
2021/07/31 00:19:06;;;;;;;;;;;18.10;99.90;;;;;;1879102;75;20211;-69
2021/07/31 00:21:33;;;;;;;;;;;18.00;99.90;;;;;;1880236;76;20203;-68
2021/07/31 00:24:00;;;;;;;;;;;18.00;99.90;;;;;;1881054;76;20179;-69
2021/07/31 00:26:27;;;;;;;;;;;18.00;99.90;;;;;;1877778;75;20171;-75
2021/07/31 00:28:54;;;;;;;;;;;17.90;99.90;;;;;;1859164;76;20179;-75
2021/07/31 00:31:21;;;;;;;;;;;17.90;99.90;;;;;;1873996;76;20201;-75
2021/07/31 00:33:48;;;;;;;;;;;17.90;99.90;;;;;;1875029;76;20155;-75
2021/07/31 00:36:15;;;;;;;;;;;17.90;99.90;;;;;;1874792;76;20213;-75
2021/07/31 00:38:42;;;;;;;;;;;17.90;99.90;;;;;;1873812;75;20271;-75
2021/07/31 00:41:08;;;;;;;;;;;17.80;99.90;;;;;;1880159;76;20641;-76
2021/07/31 00:43:35;;;;;;;;;;;17.80;99.90;;;;;;1872145;76;20191;-76
2021/07/31 00:46:02;;;;;;;;;;;17.80;99.90;;;;;;1877509;75;20429;-76
2021/07/31 00:48:29;;;;;;;;;;;17.80;99.90;;;;;;1867434;76;20255;-75
2021/07/31 00:50:56;;;;;;;;;;;17.80;99.90;;;;;;1879422;75;20475;-76
2021/07/31 00:53:23;;;;;;;;;;;17.70;99.90;;;;;;1875818;76;20472;-76
2021/07/31 00:55:50;;;;;;;;;;;17.70;99.90;;;;;;1873986;76;20380;-75
2021/07/31 00:58:17;;;;;;;;;;;17.70;99.90;;;;;;1869100;76;20180;-75
2021/07/31 01:00:44;;;;;;;;;;;17.50;99.90;;;;;;1864261;76;20224;-75
2021/07/31 01:03:11;;;;;;;;;;;17.40;99.90;;;;;;1875131;76;20205;-76
2021/07/31 01:05:38;;;;;;;;;;;17.50;99.90;;;;;;1876445;76;20211;-77
2021/07/31 01:08:05;;;;;;;;;;;17.50;99.90;;;;;;1869808;76;20120;-76
2021/07/31 01:10:33;;;;;;;;;;;17.50;99.90;;;;;;1876630;76;20218;-75
2021/07/31 01:13:01;;;;;;;;;;;17.40;99.90;;;;;;1875389;76;20464;-75
2021/07/31 01:15:28;;;;;;;;;;;17.40;99.90;;;;;;1859753;76;20162;-75
2021/07/31 01:17:55;;;;;;;;;;;17.30;99.90;;;;;;1875951;76;20125;-74
2021/07/31 01:20:23;;;;;;;;;;;17.40;99.90;;;;;;1881415;76;20472;-75
2021/07/31 01:22:50;;;;;;;;;;;17.40;99.90;;;;;;1880745;76;20233;-75
2021/07/31 01:25:17;;;;;;;;;;;17.40;99.90;;;;;;1871667;76;20116;-77
2021/07/31 01:27:44;;;;;;;;;;;17.30;99.90;;;;;;1866825;76;20506;-76
2021/07/31 01:30:11;;;;;;;;;;;17.30;99.90;;;;;;1866205;75;20297;-74
2021/07/31 01:32:37;;;;;;;;;;;17.20;99.90;;;;;;1874845;76;20136;-75
2021/07/31 01:35:04;;;;;;;;;;;17.20;99.90;;;;;;1870965;76;20193;-76
2021/07/31 01:37:31;;;;;;;;;;;17.20;99.90;;;;;;1873647;76;20187;-76
2021/07/31 01:39:58;;;;;;;;;;;17.20;99.90;;;;;;1862522;76;20251;-74
2021/07/31 01:42:25;;;;;;;;;;;17.20;99.90;;;;;;1877518;75;20176;-78
2021/07/31 01:44:52;;;;;;;;;;;17.20;99.90;;;;;;1861378;76;20207;-75
2021/07/31 01:47:19;;;;;;;;;;;17.20;99.90;;;;;;1867268;76;20222;-75
2021/07/31 01:49:46;;;;;;;;;;;17.20;99.90;;;;;;1873166;76;20424;-75
2021/07/31 01:52:12;;;;;;;;;;;17.20;99.90;;;;;;1876395;76;20190;-75
2021/07/31 01:54:39;;;;;;;;;;;17.10;99.90;;;;;;1867627;76;20168;-75
2021/07/31 01:57:06;;;;;;;;;;;17.20;99.90;;;;;;1867846;76;20222;-75
2021/07/31 01:59:33;;;;;;;;;;;17.20;99.90;;;;;;1865197;76;20195;-75
2021/07/31 02:02:00;;;;;;;;;;;17.20;99.90;;;;;;1876171;75;20198;-75
2021/07/31 02:04:26;;;;;;;;;;;17.20;99.90;;;;;;1880472;76;20253;-74
2021/07/31 02:06:53;;;;;;;;;;;17.10;99.90;;;;;;1878186;76;20160;-74
2021/07/31 02:09:20;;;;;;;;;;;17.20;99.90;;;;;;1872431;75;20172;-75
2021/07/31 02:11:47;;;;;;;;;;;17.20;99.90;;;;;;1873994;76;20159;-74
2021/07/31 02:14:13;;;;;;;;;;;17.10;99.90;;;;;;1875449;76;20133;-74
2021/07/31 02:16:40;;;;;;;;;;;17.20;99.90;;;;;;1879315;76;20183;-75
2021/07/31 02:19:07;;;;;;;;;;;17.10;99.90;;;;;;1874383;76;20188;-75
2021/07/31 02:21:34;;;;;;;;;;;17.20;99.90;;;;;;1861525;76;20510;-74
2021/07/31 02:24:01;;;;;;;;;;;17.20;99.90;;;;;;1868020;76;20198;-75
2021/07/31 02:26:27;;;;;;;;;;;17.20;99.90;;;;;;1864128;77;20425;-75
2021/07/31 02:28:54;;;;;;;;;;;17.10;99.90;;;;;;1878152;76;20182;-74
2021/07/31 02:31:21;;;;;;;;;;;17.20;99.90;;;;;;1870484;76;20248;-72
2021/07/31 02:33:48;;;;;;;;;;;17.20;99.90;;;;;;1840477;76;20270;-72
2021/07/31 02:36:15;;;;;;;;;;;17.10;99.90;;;;;;1893962;75;20294;-72
2021/07/31 02:38:42;;;;;;;;;;;17.20;99.90;;;;;;1852479;76;20187;-73
2021/07/31 02:41:08;;;;;;;;;;;17.20;99.90;;;;;;1854729;77;20575;-73
2021/07/31 02:43:35;;;;;;;;;;;17.10;99.90;;;;;;1859956;77;20235;-73
2021/07/31 02:46:06;;;;;;;;;;;17.10;99.90;;;;;;1868093;77;20149;-71
2021/07/31 02:48:34;;;;;;;;;;;17.10;99.90;;;;;;1860335;77;20559;-71
2021/07/31 02:51:02;;;;;;;;;;;17.10;99.90;;;;;;1840739;76;20499;-72
2021/07/31 02:53:29;;;;;;;;;;;17.10;99.90;;;;;;1857680;76;20188;-73
2021/07/31 02:55:56;;;;;;;;;;;17.10;99.90;;;;;;1853601;77;20437;-72
2021/07/31 02:58:23;;;;;;;;;;;17.10;99.90;;;;;;1844066;77;20129;-72
2021/07/31 03:00:50;;;;;;;;;;;17.10;99.90;;;;;;1858102;77;20160;-72
2021/07/31 03:03:16;;;;;;;;;;;17.00;99.90;;;;;;1856970;77;20446;-72
2021/07/31 03:05:43;;;;;;;;;;;17.00;99.90;;;;;;1859333;77;20215;-72
2021/07/31 03:08:10;;;;;;;;;;;17.00;99.90;;;;;;1855164;76;20442;-72
2021/07/31 03:10:37;;;;;;;;;;;17.00;99.90;;;;;;1858678;77;20176;-72
2021/07/31 03:13:04;;;;;;;;;;;17.00;99.90;;;;;;1848245;76;20159;-72
2021/07/31 03:15:30;;;;;;;;;;;17.00;99.90;;;;;;1858139;77;20137;-72
2021/07/31 03:17:57;;;;;;;;;;;17.00;99.90;;;;;;1860507;77;20129;-72
2021/07/31 03:20:24;;;;;;;;;;;17.00;99.90;;;;;;1859215;77;20117;-72
2021/07/31 03:22:51;;;;;;;;;;;17.00;99.90;;;;;;1859879;77;20113;-73
2021/07/31 03:25:18;;;;;;;;;;;17.00;99.90;;;;;;1835718;77;20136;-73
2021/07/31 03:27:45;;;;;;;;;;;17.00;99.90;;;;;;1858906;77;20155;-73
2021/07/31 03:30:12;;;;;;;;;;;16.90;99.90;;;;;;1858428;77;20472;-73
2021/07/31 03:32:38;;;;;;;;;;;16.90;99.90;;;;;;1859716;76;20145;-73
2021/07/31 03:35:05;;;;;;;;;;;16.90;99.90;;;;;;1859015;77;20588;-72
2021/07/31 03:37:32;;;;;;;;;;;16.90;99.90;;;;;;1858303;76;21004;-72
2021/07/31 03:39:59;;;;;;;;;;;16.90;99.90;;;;;;1856970;76;20173;-72
2021/07/31 03:42:26;;;;;;;;;;;16.90;99.90;;;;;;1847648;77;20203;-72
2021/07/31 03:44:53;;;;;;;;;;;16.90;99.90;;;;;;1841431;77;20423;-73
2021/07/31 03:47:20;;;;;;;;;;;16.90;99.90;;;;;;1848005;77;20176;-72
2021/07/31 03:49:46;;;;;;;;;;;16.90;99.90;;;;;;1857663;77;20476;-72
2021/07/31 03:52:13;;;;;;;;;;;16.90;99.90;;;;;;1856441;77;20180;-72
2021/07/31 03:54:40;;;;;;;;;;;16.90;99.90;;;;;;1858393;77;20511;-72
2021/07/31 03:57:26;;;;;;;;;;;16.90;99.90;;;;;;1845297;77;20176;-72
2021/07/31 03:59:53;;;;;;;;;;;16.90;99.90;;;;;;1859310;76;20156;-72
2021/07/31 04:02:20;;;;;;;;;;;16.90;99.90;;;;;;1844345;76;20386;-72
2021/07/31 04:04:46;;;;;;;;;;;16.90;99.90;;;;;;1832938;78;20172;-72
2021/07/31 04:07:13;;;;;;;;;;;16.90;99.90;;;;;;1839038;78;20450;-72
2021/07/31 04:09:40;;;;;;;;;;;16.90;99.90;;;;;;1838700;78;20296;-73
2021/07/31 04:12:07;;;;;;;;;;;16.90;99.90;;;;;;1834768;77;20536;-73
2021/07/31 04:14:34;;;;;;;;;;;16.90;99.90;;;;;;1823654;78;20206;-73
2021/07/31 04:17:01;;;;;;;;;;;16.90;99.90;;;;;;1815037;78;20151;-72
2021/07/31 04:19:28;;;;;;;;;;;16.90;99.90;;;;;;1822846;78;20184;-72
2021/07/31 04:21:56;;;;;;;;;;;16.90;99.90;;;;;;1838643;78;20202;-72
2021/07/31 04:27:11;;;;;;;;;;;16.80;99.90;;;;;;1853433;77;20490;-72
2021/07/31 04:29:38;;;;;;;;;;;16.70;99.90;;;;;;1852627;76;20580;-73
2021/07/31 04:32:05;;;;;;;;;;;16.80;99.90;;;;;;1836159;77;20191;-72
2021/07/31 04:34:32;;;;;;;;;;;16.80;99.90;;;;;;1805606;79;20111;-72
2021/07/31 04:36:58;;;;;;;;;;;16.80;99.90;;;;;;1821964;77;20175;-72
2021/07/31 04:39:25;;;;;;;;;;;16.80;99.90;;;;;;1820348;79;20504;-73
2021/07/31 04:41:52;;;;;;;;;;;16.80;99.90;;;;;;1821901;77;20175;-73
2021/07/31 04:44:19;;;;;;;;;;;16.80;99.90;;;;;;1822221;79;20474;-73
2021/07/31 04:46:46;;;;;;;;;;;16.80;99.90;;;;;;1821342;79;20201;-73
2021/07/31 04:49:12;;;;;;;;;;;16.80;99.90;;;;;;1821809;79;20180;-72
2021/07/31 04:51:39;;;;;;;;;;;16.80;99.90;;;;;;1822345;77;20475;-73
2021/07/31 04:54:06;;;;;;;;;;;16.90;99.90;;;;;;1821505;77;20179;-72
2021/07/31 04:56:33;;;;;;;;;;;16.80;99.90;;;;;;1828508;77;20527;-72
2021/07/31 04:59:00;;;;;;;;;;;16.80;99.90;;;;;;1823107;79;20157;-72
2021/07/31 05:01:26;;;;;;;;;;;16.70;99.90;;;;;;1821605;77;20784;-71
2021/07/31 05:03:53;;;;;;;;;;;16.70;99.90;;;;;;1822407;79;20432;-71
2021/07/31 05:06:25;;;;;;;;;;;16.80;99.90;;;;;;1822928;79;20116;-71
2021/07/31 05:08:49;;;;;;;;;;;16.80;99.90;;;;;;1821851;77;20114;-71
2021/07/31 05:11:18;;;;;;;;;;;16.70;99.90;;;;;;1815289;77;20220;-71
2021/07/31 05:13:45;;;;;;;;;;;16.70;99.90;;;;;;1821586;79;20441;-71
2021/07/31 05:16:15;;;;;;;;;;;16.70;99.90;;;;;;1822992;79;20199;-71
2021/07/31 05:18:43;;;;;;;;;;;16.70;99.90;;;;;;1820855;77;20163;-71
2021/07/31 05:21:10;;;;;;;;;;;16.80;99.90;;;;;;1822482;77;20204;-71
2021/07/31 05:23:37;;;;;;;;;;;16.70;99.90;;;;;;1822590;78;20473;-71
2021/07/31 05:26:05;;;;;;;;;;;16.70;99.90;;;;;;1823017;79;20493;-71
2021/07/31 05:28:32;;;;;;;;;;;16.60;99.90;;;;;;1822085;77;20157;-71
2021/07/31 05:30:59;;;;;;;;;;;16.70;99.90;;;;;;1821553;77;20423;-71
2021/07/31 05:33:26;;;;;;;;;;;16.70;99.90;;;;;;1822469;79;20124;-71
2021/07/31 05:35:53;;;;;;;;;;;16.70;99.90;;;;;;1822042;79;20444;-71
2021/07/31 05:38:19;;;;;;;;;;;16.70;99.90;;;;;;1821381;79;20493;-72
2021/07/31 05:40:46;;;;;;;;;;;16.80;99.90;;;;;;1823654;77;20158;-72
2021/07/31 05:43:13;;;;;;;;;;;16.80;99.90;;;;;;1821566;78;20466;-72
2021/07/31 05:45:40;;;;;;;;;;;16.80;99.90;;;;;;1822847;79;20130;-72
2021/07/31 05:48:07;;;;;;;;;;;16.90;99.90;;;;;;1822365;77;20385;-71
2021/07/31 05:50:33;;;;;;;;;;;16.80;99.90;;;;;;1822671;79;20141;-72
2021/07/31 05:53:00;;;;;;;;;;;16.80;99.90;;;;;;1822408;77;20105;-72
2021/07/31 05:55:27;;;;;;;;;;;16.90;99.90;;;;;;1821695;79;20152;-71
2021/07/31 05:57:54;;;;;;;;;;;16.90;99.90;;;;;;1822711;79;20209;-71
2021/07/31 06:00:21;;;;;;;;;;;17.00;99.90;;;;;;1820674;78;20227;-71
2021/07/31 06:02:47;;;;;;;;;;;17.00;99.90;;;;;;1821329;77;20191;-71
2021/07/31 06:05:14;;;;;;;;;;;17.10;99.90;;;;;;1822001;79;20477;-72
2021/07/31 06:07:41;;;;;;;;;;;17.10;99.90;;;;;;1821671;79;20272;-71
2021/07/31 06:10:08;;;;;;;;;;;17.20;99.90;;;;;;1821986;78;20177;-71
2021/07/31 06:12:35;;;;;;;;;;;17.30;99.90;;;;;;1820985;77;20118;-72
2021/07/31 06:15:02;;;;;;;;;;;17.30;99.90;;;;;;1822759;79;20169;-72
2021/07/31 06:17:29;;;;;;;;;;;17.30;99.90;;;;;;1822782;79;20157;-71
2021/07/31 06:19:56;;;;;;;;;;;17.40;99.90;;;;;;1821296;79;20318;-72
2021/07/31 06:22:22;;;;;;;;;;;17.40;99.90;;;;;;1821843;77;20187;-71
2021/07/31 06:24:49;;;;;;;;;;;17.40;99.90;;;;;;1822563;77;20395;-71
2021/07/31 06:27:16;;;;;;;;;;;17.50;99.90;;;;;;1822834;78;20233;-71
2021/07/31 06:29:43;;;;;;;;;;;17.60;99.90;;;;;;1823409;79;20162;-72
2021/07/31 06:32:09;;;;;;;;;;;17.60;99.90;;;;;;1821856;78;20189;-72
2021/07/31 06:34:36;;;;;;;;;;;17.60;99.90;;;;;;1820855;79;20195;-72
2021/07/31 06:37:03;;;;;;;;;;;17.60;99.90;;;;;;1804510;77;20121;-71
2021/07/31 06:39:30;;;;;;;;;;;17.40;99.90;;;;;;1812777;79;20171;-72
2021/07/31 06:41:57;;;;;;;;;;;17.30;99.90;;;;;;1822055;77;20462;-71
2021/07/31 06:44:24;;;;;;;;;;;17.20;99.90;;;;;;1823186;77;20126;-72
2021/07/31 06:46:50;;;;;;;;;;;17.20;99.90;;;;;;1823201;79;20189;-72
2021/07/31 06:49:17;;;;;;;;;;;17.20;99.90;;;;;;1821169;79;20228;-72
2021/07/31 06:51:44;;;;;;;;;;;17.20;99.90;;;;;;1822008;77;20128;-72
2021/07/31 06:54:11;;;;;;;;;;;17.20;99.90;;;;;;1822606;77;20185;-71
2021/07/31 06:56:37;;;;;;;;;;;17.10;99.90;;;;;;1808999;79;20183;-71
2021/07/31 06:59:04;;;;;;;;;;;17.10;99.90;;;;;;1820451;79;20195;-72
2021/07/31 07:01:31;;;;;;;;;;;17.10;99.90;;;;;;1822492;77;20218;-72
2021/07/31 07:03:58;;;;;;;;;;;17.00;99.90;;;;;;1796221;78;20199;-72
2021/07/31 07:06:25;;;;;;;;;;;17.10;99.90;;;;;;1822273;79;20176;-72
2021/07/31 07:08:52;;;;;;;;;;;17.00;99.90;;;;;;1821527;79;20212;-71
2021/07/31 07:11:18;;;;;;;;;;;17.00;99.90;;;;;;1820897;77;20219;-71
2021/07/31 07:13:45;;;;;;;;;;;16.90;99.90;;;;;;1822445;79;20175;-72
2021/07/31 07:16:12;;;;;;;;;;;17.00;99.90;;;;;;1821696;79;20222;-72
2021/07/31 07:18:39;;;;;;;;;;;17.00;99.90;;;;;;1821144;78;20191;-72
2021/07/31 07:21:06;;;;;;;;;;;17.00;99.90;;;;;;1821399;77;20227;-72
2021/07/31 07:23:34;;;;;;;;;;;17.10;99.90;;;;;;1821785;77;20158;-72
2021/07/31 07:26:00;;;;;;;;;;;17.20;99.90;;;;;;1821097;79;20792;-72
2021/07/31 07:28:27;;;;;;;;;;;17.20;99.90;;;;;;1821658;79;20254;-71
2021/07/31 07:30:54;;;;;;;;;;;17.30;99.90;;;;;;1821876;78;20236;-71
2021/07/31 07:33:21;;;;;;;;;;;17.30;99.90;;;;;;1826194;79;20233;-72
2021/07/31 07:35:47;;;;;;;;;;;17.40;99.90;;;;;;1825779;79;20164;-72
2021/07/31 07:38:14;;;;;;;;;;;17.50;99.90;;;;;;1803759;79;20231;-72
2021/07/31 07:40:41;;;;;;;;;;;17.60;99.90;;;;;;1825442;79;20169;-72
2021/07/31 07:43:08;;;;;;;;;;;17.60;99.90;;;;;;1826429;77;20171;-72
2021/07/31 07:45:35;;;;;;;;;;;17.60;99.90;;;;;;1824617;77;20168;-72
2021/07/31 07:48:02;;;;;;;;;;;17.70;99.90;;;;;;1825516;79;20128;-71
2021/07/31 07:50:28;;;;;;;;;;;17.70;99.90;;;;;;1825245;77;20150;-72
2021/07/31 07:52:55;;;;;;;;;;;17.70;99.90;;;;;;1824273;77;20154;-72
2021/07/31 07:55:22;;;;;;;;;;;17.60;99.90;;;;;;1822910;78;20189;-72
2021/07/31 07:57:49;;;;;;;;;;;17.60;99.90;;;;;;1822822;79;20132;-72
2021/07/31 08:00:16;;;;;;;;;;;17.60;99.90;;;;;;1821686;79;20185;-71
2021/07/31 08:02:43;;;;;;;;;;;17.60;99.90;;;;;;1823057;77;20111;-72
2021/07/31 08:05:12;;;;;;;;;;;17.60;99.90;;;;;;1821501;78;20173;-72
2021/07/31 08:07:41;;;;;;;;;;;17.60;99.90;;;;;;1821983;79;20158;-72
2021/07/31 08:10:07;;;;;;;;;;;17.70;99.90;;;;;;1820503;79;20177;-72
2021/07/31 08:12:34;;;;;;;;;;;17.80;99.90;;;;;;1822610;77;20172;-72
2021/07/31 08:15:00;;;;;;;;;;;17.80;99.90;;;;;;1822168;79;20175;-72
2021/07/31 08:17:27;;;;;;;;;;;17.90;99.90;;;;;;1822050;79;20156;-72
2021/07/31 08:19:54;;;;;;;;;;;17.90;99.90;;;;;;1821703;79;20207;-72
2021/07/31 08:22:21;;;;;;;;;;;17.90;99.90;;;;;;1822179;77;20179;-72
2021/07/31 08:24:48;;;;;;;;;;;17.90;99.90;;;;;;1821577;78;20175;-72
2021/07/31 08:27:15;;;;;;;;;;;17.90;99.90;;;;;;1822516;79;20185;-72
2021/07/31 08:29:42;;;;;;;;;;;18.00;99.90;;;;;;1820129;79;20195;-72
2021/07/31 08:32:09;;;;;;;;;;;18.10;99.90;;;;;;1821395;77;20184;-72
2021/07/31 08:34:36;;;;;;;;;;;18.20;99.90;;;;;;1827365;74;20483;-70
2021/07/31 08:37:03;;;;;;;;;;;18.20;99.90;;;;;;1889572;76;20477;-70
2021/07/31 08:39:30;;;;;;;;;;;18.20;99.90;;;;;;1890303;75;20469;-71
2021/07/31 08:41:57;;;;;;;;;;;18.30;99.90;;;;;;1894119;75;20184;-70
2021/07/31 08:44:24;;;;;;;;;;;18.40;99.90;;;;;;1892348;74;20465;-69
2021/07/31 08:46:51;;;;;;;;;;;18.30;99.90;;;;;;1862283;76;20178;-76
2021/07/31 08:49:23;;;;;;;;;;;18.30;99.90;;;;;;1844872;77;20172;-69
2021/07/31 08:51:51;;;;;;;;;;;18.30;99.90;;;;;;1861438;77;20173;-69
2021/07/31 08:54:17;;;;;;;;;;;18.40;99.90;;;;;;1859772;77;20211;-69
2021/07/31 08:56:44;;;;;;;;;;;18.30;99.90;;;;;;1856913;77;20170;-70
2021/07/31 08:59:11;;;;;;;;;;;18.30;99.90;;;;;;1850747;77;20157;-70
2021/07/31 09:01:38;;;;;;;;;;;18.30;99.90;;;;;;1857830;77;20218;-70
2021/07/31 09:04:15;;;;;;;;;;;18.20;99.90;;;;;;1856849;76;20200;-72
2021/07/31 09:06:42;;;;;;;;;;;18.20;99.90;;;;;;1852089;77;20160;-72
2021/07/31 09:09:09;;;;;;;;;;;18.10;99.90;;;;;;1832893;77;20179;-72
2021/07/31 09:11:37;;;;;;;;;;;18.20;99.90;;;;;;1837720;77;20429;-67
2021/07/31 09:14:12;;;;;;;;;;;18.30;99.90;;;;;;1828279;77;20172;-67
2021/07/31 09:16:40;;;;;;;;;;;18.50;99.90;;;;;;1832403;77;20215;-69
2021/07/31 09:19:07;;;;;;;;;;;18.60;99.90;;;;;;1836290;76;20180;-69
2021/07/31 09:21:34;;;;;;;;;;;18.70;99.90;;;;;;1836701;77;20239;-67
2021/07/31 09:24:01;;;;;;;;;;;18.80;99.90;;;;;;1840438;77;20332;-69
2021/07/31 09:26:32;;;;;;;;;;;18.80;99.90;;;;;;1840395;77;20155;-68
2021/07/31 09:29:01;;;;;;;;;;;18.80;99.90;;;;;;1850524;77;20451;-69
2021/07/31 09:31:28;;;;;;;;;;;18.80;99.90;;;;;;1830624;77;20500;-67
2021/07/31 09:33:56;;;;;;;;;;;18.80;99.90;;;;;;1854087;77;20497;-69
2021/07/31 09:36:23;;;;;;;;;;;18.90;99.90;;;;;;1860995;76;20196;-69
2021/07/31 09:38:50;;;;;;;;;;;18.90;99.90;;;;;;1842359;77;20209;-69
2021/07/31 09:41:24;;;;;;;;;;;18.80;99.90;;;;;;1860781;77;20225;-69
2021/07/31 09:44:01;;;;;;;;;;;18.90;99.90;;;;;;1850810;77;20385;-69
2021/07/31 09:46:38;;;;;;;;;;;19.00;99.90;;;;;;1843342;76;20125;-69
2021/07/31 09:49:06;;;;;;;;;;;19.00;99.90;;;;;;1848429;76;20138;-70
2021/07/31 09:51:34;;;;;;;;;;;19.00;99.90;;;;;;1861582;77;20107;-69
2021/07/31 09:54:06;;;;;;;;;;;19.00;99.90;;;;;;1846055;77;20126;-69
2021/07/31 09:56:34;;;;;;;;;;;19.00;99.90;;;;;;1835077;77;20116;-69
2021/07/31 09:59:01;;;;;;;;;;;19.00;99.90;;;;;;1841246;76;20207;-69
2021/07/31 10:01:28;;;;;;;;;;;18.90;99.90;;;;;;1839417;77;20180;-69
2021/07/31 10:03:56;;;;;;;;;;;18.90;99.90;;;;;;1837767;77;20501;-70
2021/07/31 10:06:23;;;;;;;;;;;18.70;99.90;;;;;;1861579;77;20454;-69
2021/07/31 10:08:51;;;;;;;;;;;18.70;99.90;;;;;;1857656;77;20267;-70
2021/07/31 10:11:18;;;;;;;;;;;18.70;99.90;;;;;;1849202;77;20200;-70
2021/07/31 10:13:45;;;;;;;;;;;18.50;99.90;;;;;;1842022;76;20177;-69
2021/07/31 10:16:12;;;;;;;;;;;18.50;99.90;;;;;;1854861;77;20150;-70
2021/07/31 10:18:39;;;;;;;;;;;18.50;99.90;;;;;;1844689;77;20165;-69
2021/07/31 10:21:06;;;;;;;;;;;18.50;99.90;;;;;;1861614;77;20208;-70
2021/07/31 10:23:51;;;;;;;;;;;18.50;99.90;;;;;;1856797;76;20213;-67
2021/07/31 10:26:18;;;;;;;;;;;18.50;99.90;;;;;;1854092;77;20158;-67
2021/07/31 10:28:45;;;;;;;;;;;18.40;99.90;;;;;;1834331;77;20113;-68
2021/07/31 10:31:30;;;;;;;;;;;18.40;99.90;;;;;;1861432;77;20166;-67
2021/07/31 10:33:57;;;;;;;;;;;18.40;99.90;;;;;;1845759;77;20415;-69
2021/07/31 10:36:29;;;;;;;;;;;18.50;99.90;;;;;;1858597;76;20173;-68
2021/07/31 10:38:56;;;;;;;;;;;18.50;99.90;;;;;;1859174;77;20244;-69
2021/07/31 10:41:41;;;;;;;;;;;18.60;99.90;;;;;;1846663;77;20154;-70
2021/07/31 10:44:11;;;;;;;;;;;18.70;99.90;;;;;;1859943;76;20164;-70
2021/07/31 10:46:39;;;;;;;;;;;18.80;99.90;;;;;;1861160;77;20181;-69
2021/07/31 10:49:24;;;;;;;;;;;18.80;99.90;;;;;;1860876;77;20189;-69
2021/07/31 10:51:51;;;;;;;;;;;18.90;99.90;;;;;;1845419;77;20449;-70
2021/07/31 10:54:18;;;;;;;;;;;18.90;99.90;;;;;;1855752;77;20166;-70
2021/07/31 10:56:55;;;;;;;;;;;19.00;99.90;;;;;;1852528;77;20168;-68
2021/07/31 10:59:21;;;;;;;;;;;18.90;99.90;;;;;;1841525;77;20130;-69
2021/07/31 11:01:48;;;;;;;;;;;18.90;99.90;;;;;;1851660;77;20167;-69
2021/07/31 11:04:26;;;;;;;;;;;18.80;99.90;;;;;;1857210;77;20248;-68
2021/07/31 11:07:06;;;;;;;;;;;18.80;99.90;;;;;;1806616;77;20153;-70
2021/07/31 11:09:33;;;;;;;;;;;18.90;99.90;;;;;;1851236;77;20162;-70
2021/07/31 11:12:01;;;;;;;;;;;18.90;99.90;;;;;;1860648;77;20158;-69
2021/07/31 11:14:30;;;;;;;;;;;18.90;99.90;;;;;;1855940;76;20173;-70
2021/07/31 11:16:58;;;;;;;;;;;18.90;99.90;;;;;;1854765;77;20217;-71
2021/07/31 11:19:32;;;;;;;;;;;19.10;99.90;;;;;;1847064;77;20224;-70
2021/07/31 11:21:59;;;;;;;;;;;19.00;99.90;;;;;;1832319;77;20172;-71
2021/07/31 11:24:26;;;;;;;;;;;18.90;99.90;;;;;;1844636;77;20178;-70
2021/07/31 11:26:54;;;;;;;;;;;18.90;99.90;;;;;;1859369;77;20174;-70
2021/07/31 11:29:25;;;;;;;;;;;18.90;99.90;;;;;;1849069;77;20528;-68
2021/07/31 11:32:15;;;;;;;;;;;18.80;99.90;;;;;;1847453;77;20217;-70
2021/07/31 11:34:41;;;;;;;;;;;18.70;99.90;;;;;;1857221;77;20224;-70
2021/07/31 11:37:08;;;;;;;;;;;18.70;99.90;;;;;;1859772;77;20181;-70
2021/07/31 11:39:36;;;;;;;;;;;18.60;99.90;;;;;;1847541;77;20211;-69
2021/07/31 11:42:03;;;;;;;;;;;18.60;99.90;;;;;;1858240;77;20213;-70
2021/07/31 11:44:34;;;;;;;;;;;18.60;99.90;;;;;;1859073;77;20223;-70
2021/07/31 11:47:01;;;;;;;;;;;18.50;99.90;;;;;;1857587;76;20174;-70
2021/07/31 11:49:29;;;;;;;;;;;18.50;99.90;;;;;;1860481;77;20142;-69
2021/07/31 11:51:58;;;;;;;;;;;18.30;99.90;;;;;;1855886;77;20993;-70
2021/07/31 11:54:25;;;;;;;;;;;18.10;99.90;;;;;;1845463;76;20196;-69
2021/07/31 11:56:53;;;;;;;;;;;18.00;99.90;;;;;;1831359;77;20149;-69
2021/07/31 11:59:23;;;;;;;;;;;17.90;99.90;;;;;;1841183;77;20170;-72
2021/07/31 12:01:54;;;;;;;;;;;17.70;99.90;;;;;;1838972;77;20160;-69
2021/07/31 12:04:40;;;;;;;;;;;17.60;99.90;;;;;;1840973;77;20481;-70
2021/07/31 12:07:10;;;;;;;;;;;17.50;99.90;;;;;;1837180;77;20156;-69
2021/07/31 12:09:37;;;;;;;;;;;17.40;99.90;;;;;;1836232;77;20169;-69
2021/07/31 12:12:04;;;;;;;;;;;17.40;99.90;;;;;;1856758;77;20233;-70
2021/07/31 12:14:38;;;;;;;;;;;17.40;99.90;;;;;;1841333;77;20158;-69
2021/07/31 12:17:18;;;;;;;;;;;17.40;99.90;;;;;;1856785;77;20158;-70
2021/07/31 12:19:46;;;;;;;;;;;17.40;99.90;;;;;;1858038;76;20243;-69
2021/07/31 12:22:15;;;;;;;;;;;17.40;99.90;;;;;;1855532;77;20153;-69
2021/07/31 12:24:41;;;;;;;;;;;17.50;99.90;;;;;;1859765;77;20162;-69
2021/07/31 12:27:08;;;;;;;;;;;17.50;99.90;;;;;;1861208;76;20329;-69
2021/07/31 12:29:36;;;;;;;;;;;17.60;99.90;;;;;;1857305;76;20515;-69
2021/07/31 12:32:19;;;;;;;;;;;18.00;99.90;;;;;;1845099;76;20179;-69
2021/07/31 12:34:46;;;;;;;;;;;18.30;99.90;;;;;;1850329;76;20228;-68
2021/07/31 12:37:13;;;;;;;;;;;18.60;99.90;;;;;;1842077;76;20147;-67
2021/07/31 12:39:40;;;;;;;;;;;18.90;99.90;;;;;;1848333;77;20518;-68
2021/07/31 12:42:08;;;;;;;;;;;18.90;99.90;;;;;;1861107;77;20162;-70
2021/07/31 12:44:36;;;;;;;;;;;19.00;99.90;;;;;;1857972;77;20166;-68
2021/07/31 12:47:05;;;;;;;;;;;19.00;99.90;;;;;;1854670;77;20183;-68
2021/07/31 12:49:33;;;;;;;;;;;19.00;99.90;;;;;;1858904;77;20166;-70
2021/07/31 12:52:01;;;;;;;;;;;19.10;99.90;;;;;;1869936;76;20132;-69
2021/07/31 12:54:28;;;;;;;;;;;19.10;99.90;;;;;;1850427;77;20123;-70
2021/07/31 12:56:55;;;;;;;;;;;19.30;99.90;;;;;;1836139;76;20149;-70
2021/07/31 12:59:21;;;;;;;;;;;19.50;99.90;;;;;;1835273;77;20136;-70
2021/07/31 13:01:48;;;;;;;;;;;19.70;99.90;;;;;;1855769;77;20173;-72
2021/07/31 13:04:15;;;;;;;;;;;19.70;99.90;;;;;;1856988;77;20134;-70
2021/07/31 13:06:42;;;;;;;;;;;19.60;99.90;;;;;;1854323;76;20117;-70
2021/07/31 13:09:09;;;;;;;;;;;19.50;99.90;;;;;;1860620;76;20180;-70
2021/07/31 13:11:36;;;;;;;;;;;19.50;99.90;;;;;;1861698;77;20118;-70
2021/07/31 13:14:03;;;;;;;;;;;19.50;99.90;;;;;;1861823;76;20192;-70
2021/07/31 13:16:33;;;;;;;;;;;19.40;99.90;;;;;;1860883;77;20248;-70
2021/07/31 13:18:58;;;;;;;;;;;19.50;99.90;;;;;;1831619;77;20428;-70
2021/07/31 13:21:25;;;;;;;;;;;19.60;99.90;;;;;;1856905;77;20172;-70
2021/07/31 13:23:52;;;;;;;;;;;19.80;99.90;;;;;;1856842;77;20220;-70
2021/07/31 13:26:19;;;;;;;;;;;20.10;99.90;;;;;;1838877;77;20154;-70
2021/07/31 13:28:46;;;;;;;;;;;20.10;99.90;;;;;;1839483;77;20172;-69
2021/07/31 13:31:12;;;;;;;;;;;20.20;99.90;;;;;;1843766;76;20164;-70
2021/07/31 13:33:39;;;;;;;;;;;20.60;99.90;;;;;;1859433;77;20119;-68
2021/07/31 13:36:06;;;;;;;;;;;20.70;99.90;;;;;;1849013;77;20196;-70
2021/07/31 13:38:35;;;;;;;;;;;20.60;99.90;;;;;;1859744;76;20165;-70
2021/07/31 13:41:02;;;;;;;;;;;20.40;99.90;;;;;;1855841;77;20185;-70
2021/07/31 13:43:36;;;;;;;;;;;20.30;99.90;;;;;;1852762;77;20152;-70
2021/07/31 13:45:57;;;;;;;;;;;20.30;99.90;;;;;;1844798;77;20204;-71
2021/07/31 13:48:24;;;;;;;;;;;20.20;99.90;;;;;;1858988;77;20261;-69
2021/07/31 13:50:50;;;;;;;;;;;20.00;99.90;;;;;;1859941;76;20177;-70
2021/07/31 13:53:17;;;;;;;;;;;20.00;99.90;;;;;;1860360;77;20153;-70
2021/07/31 13:55:44;;;;;;;;;;;20.00;99.90;;;;;;1844249;77;20184;-69
2021/07/31 13:58:11;;;;;;;;;;;20.10;99.90;;;;;;1847246;77;20206;-69
2021/07/31 14:00:38;;;;;;;;;;;20.10;99.90;;;;;;1858414;76;20567;-69
2021/07/31 14:03:05;;;;;;;;;;;20.10;99.90;;;;;;1831470;77;20550;-68
2021/07/31 14:05:32;;;;;;;;;;;20.10;99.90;;;;;;1852585;77;20265;-69
2021/07/31 14:07:59;;;;;;;;;;;20.00;99.90;;;;;;1850202;77;20166;-69
2021/07/31 14:10:26;;;;;;;;;;;19.90;99.90;;;;;;1858237;76;20269;-69
2021/07/31 14:12:53;;;;;;;;;;;19.80;99.90;;;;;;1854173;77;20232;-69
2021/07/31 14:15:20;;;;;;;;;;;19.70;99.90;;;;;;1833474;77;20215;-69
2021/07/31 14:17:46;;;;;;;;;;;19.70;99.90;;;;;;1849632;77;20227;-68
2021/07/31 14:20:13;;;;;;;;;;;19.60;99.90;;;;;;1859315;77;20204;-68
2021/07/31 14:22:40;;;;;;;;;;;19.50;99.90;;;;;;1848910;76;20226;-69